WetterOnline ( https://www.wetteronline.de )

Wetter aktuell Öhringen

Aktuelles Wetter: Öhringen (277m)

6-stündlich | Neueste Meldungen
Ortszeit Temperatur Wetter
Sa, 16.11. 19:00 5.2° C wolkig
Sa, 16.11. 13:00 6.1° C bedeckt
Sa, 16.11. 7:00 2.2° C wolkig
Sa, 16.11. 1:00 3.8° C leichter Regen
Fr, 15.11. 19:00 4.0° C bedeckt
Fr, 15.11. 13:00 4.6° C wolkig
Fr, 15.11. 7:00 2.5° C bedeckt
Fr, 15.11. 1:00 3.6° C bedeckt
Ortszeit Temperatur Wetter
Sa, 16.11. 23:00 2.9° C bedeckt
Sa, 16.11. 22:50 2.9° C bedeckt
Sa, 16.11. 22:40 3.1° C bedeckt
Sa, 16.11. 22:30 2.8° C wolkig
Sa, 16.11. 22:20 2.8° C wolkig
Sa, 16.11. 22:10 2.9° C wolkig
Sa, 16.11. 22:00 3.0° C bedeckt
Sa, 16.11. 21:30 3.2° C wolkig
Sa, 16.11. 21:00 3.0° C fast wolkenlos
Sa, 16.11. 20:30 3.5° C wolkenlos
Sa, 16.11. 20:00 3.9° C fast wolkenlos
Ortszeit Relative Feuchte Sichtweite
Sa, 16.11. 19:00 91% 20 km
Sa, 16.11. 13:00 84% 12 km
Sa, 16.11. 7:00 97% 3.7 km
Sa, 16.11. 1:00 95% 4.8 km
Fr, 15.11. 19:00 87% 14 km
Fr, 15.11. 13:00 81% 26 km
Fr, 15.11. 7:00 85% 26 km
Fr, 15.11. 1:00 84% 21 km
Ortszeit Relative Feuchte Sichtweite
Sa, 16.11. 23:00 94% 8 km
Sa, 16.11. 22:50 94% -
Sa, 16.11. 22:40 94% -
Sa, 16.11. 22:30 94% 9 km
Sa, 16.11. 22:20 94% -
Sa, 16.11. 22:10 94% -
Sa, 16.11. 22:00 94% 8 km
Sa, 16.11. 21:30 94% 10 km
Sa, 16.11. 21:00 94% 13 km
Sa, 16.11. 20:30 93% 16 km
Sa, 16.11. 20:00 93% 16 km
Ortszeit Niederschlagsmenge Niederschlagsart
Sa, 16.11. 19:00 0.0 l/m2 in 12 Std. -
Sa, 16.11. 13:00 0.0 l/m2 in 6 Std. -
Sa, 16.11. 7:00 4 l/m2 in 12 Std. Regen
Sa, 16.11. 1:00 3 l/m2 in 6 Std. Regen
Fr, 15.11. 19:00 0.1 l/m2 in 12 Std. -
Fr, 15.11. 13:00 0.1 l/m2 in 6 Std. Schnee, Regen
Fr, 15.11. 7:00 0.0 l/m2 in 12 Std. -
Fr, 15.11. 1:00 0.0 l/m2 in 6 Std. -
Ortszeit Niederschlagsmenge Niederschlagsart
Sa, 16.11. 23:00 0.0 l/m2 in 1 Std. -
Sa, 16.11. 22:50 keine Meldung -
Sa, 16.11. 22:40 keine Meldung -
Sa, 16.11. 22:30 0.0 l/m2 in 1 Std. -
Sa, 16.11. 22:20 keine Meldung -
Sa, 16.11. 22:10 keine Meldung -
Sa, 16.11. 22:00 0.0 l/m2 in 1 Std. -
Sa, 16.11. 21:30 0.0 l/m2 in 1 Std. -
Sa, 16.11. 21:00 0.0 l/m2 in 1 Std. -
Sa, 16.11. 20:30 0.0 l/m2 in 1 Std. -
Sa, 16.11. 20:00 0.0 l/m2 in 1 Std. -
Ortszeit Stärke Spitze Richtung
km/h Bft. km/h Grad Sektor
Sa, 16.11. 19:00 2 1 17 160° S
Sa, 16.11. 13:00 4 1 11 40° NO
Sa, 16.11. 7:00 7 2 7 40° NO
Sa, 16.11. 1:00 4 1 14 220° SW
Fr, 15.11. 19:00 6 1 13 150° SO
Fr, 15.11. 13:00 7 2 25 230° SW
Fr, 15.11. 7:00 9 2 26 50° NO
Fr, 15.11. 1:00 14 3 32 70° O
Ortszeit Stärke Spitze Richtung
km/h Bft. km/h Grad Sektor
Sa, 16.11. 23:00 4 1 11 40° NO
Sa, 16.11. 22:50 4 1 - 40° NO
Sa, 16.11. 22:40 4 1 - 70° O
Sa, 16.11. 22:30 6 1 11 90° O
Sa, 16.11. 22:20 6 1 - 90° O
Sa, 16.11. 22:10 7 2 - 80° O
Sa, 16.11. 22:00 7 2 14 80° O
Sa, 16.11. 21:30 7 2 14 100° O
Sa, 16.11. 21:00 4 1 11 150° SO
Sa, 16.11. 20:30 7 2 11 80° O
Sa, 16.11. 20:00 7 2 7 80° O
Ortszeit Untergrenze Bedeckung Gattung
total tief tief mittel hoch
Sa, 16.11. 19:00 1170 m 6/8 2/8 - - -
Sa, 16.11. 13:00 150 m 8/8 8/8 - - -
Sa, 16.11. 7:00 1170 m 7/8 1/8 - - -
Sa, 16.11. 1:00 900 m 8/8 8/8 - - -
Fr, 15.11. 19:00 2100 m 8/8 8/8 - - -
Fr, 15.11. 13:00 1800 m 8/8 1/8 - - -
Fr, 15.11. 7:00 3900 m 8/8 8/8 - - -
Fr, 15.11. 1:00 390 m 8/8 8/8 - - -
Ortszeit Bedeckungsgrad in Achtel und Wolkenuntergrenze
Sa, 16.11. 23:00 8(6600m)
Sa, 16.11. 22:50 8(6600m)
Sa, 16.11. 22:40 8(6600m)
Sa, 16.11. 22:30 8(7200m)
Sa, 16.11. 22:20 8(7200m)
Sa, 16.11. 22:10 8(7200m)
Sa, 16.11. 22:00 8(6900m) 8(8700m)
Sa, 16.11. 21:30 7(7200m) 8(8100m)
Sa, 16.11. 21:00 2(8400m) 5(8400m)
Sa, 16.11. 20:30 keine Wolken
Sa, 16.11. 20:00 2(7500m)
Ortszeit Luftdruck NN (hPa) Tendenz (hPa in 3 Std.)
Sa, 16.11. 19:00 1013 + 1,2
Sa, 16.11. 13:00 1011 + 1,5
Sa, 16.11. 7:00 1008 + 1,7
Sa, 16.11. 1:00 1005 + 0,4
Fr, 15.11. 19:00 1005 + 1,1
Fr, 15.11. 13:00 1003 + 2,5
Fr, 15.11. 7:00 996 - 2,2
Fr, 15.11. 1:00 1000 - 0,7
Ortszeit Luftdruck NN (hPa) Tendenz (hPa in 3 Std.)
Sa, 16.11. 23:00 1013 - 0,1
Sa, 16.11. 22:50 1013 keine Meldung
Sa, 16.11. 22:40 1014 keine Meldung
Sa, 16.11. 22:30 1014 + 0,1
Sa, 16.11. 22:20 1014 keine Meldung
Sa, 16.11. 22:10 1014 keine Meldung
Sa, 16.11. 22:00 1014 + 0,6
Sa, 16.11. 21:30 1014 + 0,7
Sa, 16.11. 21:00 1014 + 0,6
Sa, 16.11. 20:30 1014 + 0,3
Sa, 16.11. 20:00 1013 + 0,4
Ortszeit Schneehöhe (cm)
Sa, 16.11. 19:00 0
Sa, 16.11. 13:00 0
Sa, 16.11. 7:00 0
Sa, 16.11. 1:00 0
Fr, 15.11. 19:00 0
Fr, 15.11. 13:00 0
Fr, 15.11. 7:00 0
Fr, 15.11. 1:00 0
Ortszeit Schneehöhe (cm)
Sa, 16.11. 23:00 0
Sa, 16.11. 22:50 0
Sa, 16.11. 22:40 0
Sa, 16.11. 22:30 0
Sa, 16.11. 22:20 0
Sa, 16.11. 22:10 0
Sa, 16.11. 22:00 0
Sa, 16.11. 21:30 0
Sa, 16.11. 21:00 0
Sa, 16.11. 20:30 0
Sa, 16.11. 20:00 0
Link zu dieser Seite / Seite empfehlen

Das Wetter in ...